KMRH

Michael J Smith Field Airport

Beaufort, North Carolina, USA
METAR KMRH 182158Z AUTO 27005KT 10SM CLR 27/23 A3000 RMK AO2 LTG DSNT NE TSB43E58 SLP159 T02720228
Observed Flight Rules
Jun-18 @ 21:58 UTC (47 minutes ago) Visual Flight Rules
Wind Visibility Clouds
270° at 5 knots 10 miles
  • Clear skies
Temperatures Readings
Current 27°C / 81°F
Dewpoint 23°C / 73°F
Humidity 79%
Altimeter 30" Hg
Pressure 1015.9 hPa
Elevation 3
METAR KMRH 182158Z AUTO 27005KT 10SM CLR 27/23 A3000 RMK AO2 LTG DSNT NE TSB43E58 SLP159 T02720228
Observed Flight Rules
Jun-18 @ 21:58 UTC
(47 minutes ago)
VFR
Wind Visibility
270° at 5 knots 10 miles
Clouds
  • Clear skies
Temperature Dewpoint
27°C / 81°F 23°C / 73°F
Humidity Altimeter Pressure
79% 30" Hg 1015.9 hPa